sensor_id;sensor_type;location;lat;lon;timestamp;P1;durP1;ratioP1;P2;durP2;ratioP2
68377;SDS011;55322;48.146;11.516;2023-04-24T00:00:18;3.70;;;0.67;;
68377;SDS011;55322;48.146;11.516;2023-04-24T00:02:44;3.95;;;0.70;;
68377;SDS011;55322;48.146;11.516;2023-04-24T00:05:11;4.00;;;0.77;;
68377;SDS011;55322;48.146;11.516;2023-04-24T00:07:38;3.63;;;0.70;;
68377;SDS011;55322;48.146;11.516;2023-04-24T00:10:04;3.63;;;0.68;;
68377;SDS011;55322;48.146;11.516;2023-04-24T00:12:30;3.90;;;0.70;;
68377;SDS011;55322;48.146;11.516;2023-04-24T00:14:55;5.27;;;0.70;;
68377;SDS011;55322;48.146;11.516;2023-04-24T00:17:21;3.37;;;0.60;;
68377;SDS011;55322;48.146;11.516;2023-04-24T00:19:46;3.43;;;0.60;;
68377;SDS011;55322;48.146;11.516;2023-04-24T00:22:13;3.55;;;0.55;;
68377;SDS011;55322;48.146;11.516;2023-04-24T00:24:39;4.15;;;0.70;;
68377;SDS011;55322;48.146;11.516;2023-04-24T00:27:04;4.53;;;0.60;;
68377;SDS011;55322;48.146;11.516;2023-04-24T00:29:30;5.10;;;0.60;;
68377;SDS011;55322;48.146;11.516;2023-04-24T00:31:55;3.47;;;0.60;;
68377;SDS011;55322;48.146;11.516;2023-04-24T00:34:20;3.63;;;0.60;;
68377;SDS011;55322;48.146;11.516;2023-04-24T00:36:46;4.73;;;0.60;;
68377;SDS011;55322;48.146;11.516;2023-04-24T00:39:11;4.57;;;0.50;;
68377;SDS011;55322;48.146;11.516;2023-04-24T00:41:37;5.33;;;0.77;;
68377;SDS011;55322;48.146;11.516;2023-04-24T00:44:02;2.90;;;0.50;;
68377;SDS011;55322;48.146;11.516;2023-04-24T00:46:27;2.87;;;0.57;;
68377;SDS011;55322;48.146;11.516;2023-04-24T00:48:53;3.00;;;0.40;;
68377;SDS011;55322;48.146;11.516;2023-04-24T00:51:19;3.03;;;0.45;;
68377;SDS011;55322;48.146;11.516;2023-04-24T00:53:45;3.45;;;0.60;;
68377;SDS011;55322;48.146;11.516;2023-04-24T00:56:11;3.47;;;0.50;;
68377;SDS011;55322;48.146;11.516;2023-04-24T00:58:36;3.83;;;0.50;;
68377;SDS011;55322;48.146;11.516;2023-04-24T01:01:02;2.47;;;0.40;;
68377;SDS011;55322;48.146;11.516;2023-04-24T01:03:31;2.87;;;0.50;;
68377;SDS011;55322;48.146;11.516;2023-04-24T01:05:58;3.83;;;0.50;;
68377;SDS011;55322;48.146;11.516;2023-04-24T01:08:24;2.15;;;0.38;;
68377;SDS011;55322;48.146;11.516;2023-04-24T01:10:51;3.50;;;0.50;;
68377;SDS011;55322;48.146;11.516;2023-04-24T01:13:17;3.13;;;0.50;;
68377;SDS011;55322;48.146;11.516;2023-04-24T01:15:46;2.50;;;0.40;;
68377;SDS011;55322;48.146;11.516;2023-04-24T01:18:12;2.90;;;0.50;;
68377;SDS011;55322;48.146;11.516;2023-04-24T01:20:41;2.33;;;0.40;;
68377;SDS011;55322;48.146;11.516;2023-04-24T01:23:09;4.20;;;0.33;;
68377;SDS011;55322;48.146;11.516;2023-04-24T01:25:35;3.72;;;0.40;;
68377;SDS011;55322;48.146;11.516;2023-04-24T01:28:01;2.78;;;0.40;;
68377;SDS011;55322;48.146;11.516;2023-04-24T01:30:26;2.40;;;0.40;;
68377;SDS011;55322;48.146;11.516;2023-04-24T01:32:52;3.10;;;0.60;;
68377;SDS011;55322;48.146;11.516;2023-04-24T01:35:18;2.30;;;0.30;;
68377;SDS011;55322;48.146;11.516;2023-04-24T01:37:44;2.33;;;0.30;;
68377;SDS011;55322;48.146;11.516;2023-04-24T01:40:10;2.30;;;0.40;;
68377;SDS011;55322;48.146;11.516;2023-04-24T01:42:35;2.67;;;0.30;;
68377;SDS011;55322;48.146;11.516;2023-04-24T01:45:01;2.83;;;0.50;;
68377;SDS011;55322;48.146;11.516;2023-04-24T01:47:28;2.65;;;0.40;;
68377;SDS011;55322;48.146;11.516;2023-04-24T01:49:55;2.53;;;0.40;;
68377;SDS011;55322;48.146;11.516;2023-04-24T01:52:20;2.50;;;0.40;;
68377;SDS011;55322;48.146;11.516;2023-04-24T01:54:46;2.40;;;0.37;;
68377;SDS011;55322;48.146;11.516;2023-04-24T01:57:11;2.22;;;0.30;;
68377;SDS011;55322;48.146;11.516;2023-04-24T01:59:38;4.73;;;0.43;;
68377;SDS011;55322;48.146;11.516;2023-04-24T02:02:03;2.40;;;0.40;;
68377;SDS011;55322;48.146;11.516;2023-04-24T02:04:28;2.80;;;0.40;;
68377;SDS011;55322;48.146;11.516;2023-04-24T02:06:54;2.63;;;0.40;;
68377;SDS011;55322;48.146;11.516;2023-04-24T02:09:19;2.63;;;0.47;;
68377;SDS011;55322;48.146;11.516;2023-04-24T02:11:45;2.63;;;0.50;;
68377;SDS011;55322;48.146;11.516;2023-04-24T02:14:10;3.60;;;0.40;;
68377;SDS011;55322;48.146;11.516;2023-04-24T02:16:36;2.13;;;0.40;;
68377;SDS011;55322;48.146;11.516;2023-04-24T02:19:01;3.17;;;0.40;;
68377;SDS011;55322;48.146;11.516;2023-04-24T02:21:27;2.45;;;0.40;;
68377;SDS011;55322;48.146;11.516;2023-04-24T02:23:53;3.37;;;0.43;;
68377;SDS011;55322;48.146;11.516;2023-04-24T02:26:18;3.10;;;0.60;;
68377;SDS011;55322;48.146;11.516;2023-04-24T02:28:44;2.33;;;0.40;;
68377;SDS011;55322;48.146;11.516;2023-04-24T02:31:09;2.78;;;0.30;;
68377;SDS011;55322;48.146;11.516;2023-04-24T02:33:34;3.07;;;0.40;;
68377;SDS011;55322;48.146;11.516;2023-04-24T02:36:00;2.30;;;0.30;;
68377;SDS011;55322;48.146;11.516;2023-04-24T02:38:26;2.50;;;0.40;;
68377;SDS011;55322;48.146;11.516;2023-04-24T02:40:52;4.70;;;0.40;;
68377;SDS011;55322;48.146;11.516;2023-04-24T02:43:17;2.88;;;0.40;;
68377;SDS011;55322;48.146;11.516;2023-04-24T02:45:42;2.47;;;0.33;;
68377;SDS011;55322;48.146;11.516;2023-04-24T02:48:08;2.87;;;0.43;;
68377;SDS011;55322;48.146;11.516;2023-04-24T02:50:33;2.27;;;0.30;;
68377;SDS011;55322;48.146;11.516;2023-04-24T02:52:58;4.13;;;0.40;;
68377;SDS011;55322;48.146;11.516;2023-04-24T02:55:24;2.37;;;0.30;;
68377;SDS011;55322;48.146;11.516;2023-04-24T02:57:50;2.77;;;0.40;;
68377;SDS011;55322;48.146;11.516;2023-04-24T03:00:15;2.80;;;0.50;;
68377;SDS011;55322;48.146;11.516;2023-04-24T03:02:41;3.03;;;0.40;;
68377;SDS011;55322;48.146;11.516;2023-04-24T03:05:06;1.90;;;0.33;;
68377;SDS011;55322;48.146;11.516;2023-04-24T03:07:32;2.53;;;0.40;;
68377;SDS011;55322;48.146;11.516;2023-04-24T03:09:57;3.37;;;0.57;;
68377;SDS011;55322;48.146;11.516;2023-04-24T03:12:23;2.70;;;0.40;;
68377;SDS011;55322;48.146;11.516;2023-04-24T03:14:49;2.95;;;0.55;;
68377;SDS011;55322;48.146;11.516;2023-04-24T03:17:14;3.70;;;0.40;;
68377;SDS011;55322;48.146;11.516;2023-04-24T03:19:39;2.67;;;0.40;;
68377;SDS011;55322;48.146;11.516;2023-04-24T03:22:05;4.72;;;0.50;;
68377;SDS011;55322;48.146;11.516;2023-04-24T03:24:30;2.53;;;0.40;;
68377;SDS011;55322;48.146;11.516;2023-04-24T03:26:56;3.07;;;0.40;;
68377;SDS011;55322;48.146;11.516;2023-04-24T03:29:22;2.83;;;0.40;;
68377;SDS011;55322;48.146;11.516;2023-04-24T03:31:47;2.57;;;0.40;;
68377;SDS011;55322;48.146;11.516;2023-04-24T03:34:13;4.93;;;0.50;;
68377;SDS011;55322;48.146;11.516;2023-04-24T03:36:38;2.60;;;0.43;;
68377;SDS011;55322;48.146;11.516;2023-04-24T03:39:03;3.33;;;0.50;;
68377;SDS011;55322;48.146;11.516;2023-04-24T03:41:28;2.77;;;0.30;;
68377;SDS011;55322;48.146;11.516;2023-04-24T03:43:55;2.43;;;0.40;;
68377;SDS011;55322;48.146;11.516;2023-04-24T03:46:20;3.85;;;0.50;;
68377;SDS011;55322;48.146;11.516;2023-04-24T03:48:46;3.13;;;0.50;;
68377;SDS011;55322;48.146;11.516;2023-04-24T03:51:11;2.40;;;0.43;;
68377;SDS011;55322;48.146;11.516;2023-04-24T03:53:36;2.80;;;0.50;;
68377;SDS011;55322;48.146;11.516;2023-04-24T03:56:02;3.47;;;0.53;;
68377;SDS011;55322;48.146;11.516;2023-04-24T03:58:27;3.27;;;0.70;;
68377;SDS011;55322;48.146;11.516;2023-04-24T04:00:52;3.13;;;0.50;;
68377;SDS011;55322;48.146;11.516;2023-04-24T04:03:18;2.70;;;0.43;;
68377;SDS011;55322;48.146;11.516;2023-04-24T04:05:43;2.60;;;0.50;;
68377;SDS011;55322;48.146;11.516;2023-04-24T04:08:08;3.30;;;0.43;;
68377;SDS011;55322;48.146;11.516;2023-04-24T04:10:34;3.13;;;0.50;;
68377;SDS011;55322;48.146;11.516;2023-04-24T04:12:59;3.30;;;0.50;;
68377;SDS011;55322;48.146;11.516;2023-04-24T04:15:25;3.63;;;0.50;;
68377;SDS011;55322;48.146;11.516;2023-04-24T04:17:50;2.67;;;0.40;;
68377;SDS011;55322;48.146;11.516;2023-04-24T04:20:16;2.67;;;0.40;;
68377;SDS011;55322;48.146;11.516;2023-04-24T04:22:41;2.63;;;0.40;;
68377;SDS011;55322;48.146;11.516;2023-04-24T04:25:06;2.67;;;0.40;;
68377;SDS011;55322;48.146;11.516;2023-04-24T04:27:33;2.08;;;0.30;;
68377;SDS011;55322;48.146;11.516;2023-04-24T04:29:59;4.10;;;0.50;;
68377;SDS011;55322;48.146;11.516;2023-04-24T04:32:32;2.40;;;0.40;;
68377;SDS011;55322;48.146;11.516;2023-04-24T04:34:59;3.13;;;0.50;;
68377;SDS011;55322;48.146;11.516;2023-04-24T04:37:31;4.13;;;0.40;;
68377;SDS011;55322;48.146;11.516;2023-04-24T04:39:58;3.00;;;0.50;;
68377;SDS011;55322;48.146;11.516;2023-04-24T04:42:24;2.85;;;0.50;;
68377;SDS011;55322;48.146;11.516;2023-04-24T04:44:50;3.47;;;0.50;;
68377;SDS011;55322;48.146;11.516;2023-04-24T04:47:16;4.93;;;0.70;;
68377;SDS011;55322;48.146;11.516;2023-04-24T04:49:42;4.72;;;0.45;;
68377;SDS011;55322;48.146;11.516;2023-04-24T04:52:08;3.33;;;0.50;;
68377;SDS011;55322;48.146;11.516;2023-04-24T04:54:33;3.40;;;0.50;;
68377;SDS011;55322;48.146;11.516;2023-04-24T04:56:59;3.77;;;0.50;;
68377;SDS011;55322;48.146;11.516;2023-04-24T04:59:25;4.25;;;0.70;;
68377;SDS011;55322;48.146;11.516;2023-04-24T05:01:50;3.70;;;0.47;;
68377;SDS011;55322;48.146;11.516;2023-04-24T05:04:16;5.10;;;0.50;;
68377;SDS011;55322;48.146;11.516;2023-04-24T05:06:41;4.15;;;0.60;;
68377;SDS011;55322;48.146;11.516;2023-04-24T05:09:06;4.10;;;0.47;;
68377;SDS011;55322;48.146;11.516;2023-04-24T05:11:32;2.87;;;0.40;;
68377;SDS011;55322;48.146;11.516;2023-04-24T05:13:57;4.20;;;0.40;;
68377;SDS011;55322;48.146;11.516;2023-04-24T05:16:23;3.50;;;0.47;;
68377;SDS011;55322;48.146;11.516;2023-04-24T05:18:48;3.17;;;0.47;;
68377;SDS011;55322;48.146;11.516;2023-04-24T05:21:13;4.00;;;0.57;;
68377;SDS011;55322;48.146;11.516;2023-04-24T05:23:39;4.27;;;0.53;;
68377;SDS011;55322;48.146;11.516;2023-04-24T05:26:04;4.40;;;0.67;;
68377;SDS011;55322;48.146;11.516;2023-04-24T05:28:29;3.27;;;0.50;;
68377;SDS011;55322;48.146;11.516;2023-04-24T05:30:55;2.97;;;0.50;;
68377;SDS011;55322;48.146;11.516;2023-04-24T05:33:24;5.00;;;0.70;;
68377;SDS011;55322;48.146;11.516;2023-04-24T05:35:50;4.15;;;0.60;;
68377;SDS011;55322;48.146;11.516;2023-04-24T05:38:15;2.60;;;0.30;;
68377;SDS011;55322;48.146;11.516;2023-04-24T05:40:42;3.25;;;0.50;;
68377;SDS011;55322;48.146;11.516;2023-04-24T05:43:08;4.53;;;0.40;;
68377;SDS011;55322;48.146;11.516;2023-04-24T05:45:33;2.90;;;0.30;;
68377;SDS011;55322;48.146;11.516;2023-04-24T05:48:00;2.83;;;0.30;;
68377;SDS011;55322;48.146;11.516;2023-04-24T05:50:26;2.60;;;0.30;;
68377;SDS011;55322;48.146;11.516;2023-04-24T05:52:52;2.35;;;0.43;;
68377;SDS011;55322;48.146;11.516;2023-04-24T05:55:17;2.80;;;0.30;;
68377;SDS011;55322;48.146;11.516;2023-04-24T05:57:43;2.83;;;0.40;;
68377;SDS011;55322;48.146;11.516;2023-04-24T06:00:09;2.70;;;0.40;;
68377;SDS011;55322;48.146;11.516;2023-04-24T06:02:37;2.30;;;0.40;;
68377;SDS011;55322;48.146;11.516;2023-04-24T06:05:02;3.25;;;0.40;;
68377;SDS011;55322;48.146;11.516;2023-04-24T06:07:29;2.20;;;0.30;;
68377;SDS011;55322;48.146;11.516;2023-04-24T06:09:55;2.90;;;0.40;;
68377;SDS011;55322;48.146;11.516;2023-04-24T06:12:20;3.33;;;0.40;;
68377;SDS011;55322;48.146;11.516;2023-04-24T06:14:46;2.15;;;0.40;;
68377;SDS011;55322;48.146;11.516;2023-04-24T06:17:12;3.53;;;0.40;;
68377;SDS011;55322;48.146;11.516;2023-04-24T06:19:38;2.50;;;0.40;;
68377;SDS011;55322;48.146;11.516;2023-04-24T06:22:03;2.97;;;0.37;;
68377;SDS011;55322;48.146;11.516;2023-04-24T06:24:29;3.20;;;0.30;;
68377;SDS011;55322;48.146;11.516;2023-04-24T06:26:54;2.40;;;0.40;;
68377;SDS011;55322;48.146;11.516;2023-04-24T06:29:21;2.17;;;0.30;;
68377;SDS011;55322;48.146;11.516;2023-04-24T06:31:47;2.40;;;0.40;;
68377;SDS011;55322;48.146;11.516;2023-04-24T06:34:12;1.85;;;0.30;;
68377;SDS011;55322;48.146;11.516;2023-04-24T06:36:37;4.00;;;0.50;;
68377;SDS011;55322;48.146;11.516;2023-04-24T06:39:03;2.50;;;0.40;;
68377;SDS011;55322;48.146;11.516;2023-04-24T06:41:29;2.22;;;0.28;;
68377;SDS011;55322;48.146;11.516;2023-04-24T06:43:54;3.73;;;0.40;;
68377;SDS011;55322;48.146;11.516;2023-04-24T06:46:20;2.40;;;0.30;;
68377;SDS011;55322;48.146;11.516;2023-04-24T06:48:48;2.20;;;0.40;;
68377;SDS011;55322;48.146;11.516;2023-04-24T06:51:14;2.70;;;0.30;;
68377;SDS011;55322;48.146;11.516;2023-04-24T06:53:39;2.47;;;0.40;;
68377;SDS011;55322;48.146;11.516;2023-04-24T06:56:05;2.73;;;0.40;;
68377;SDS011;55322;48.146;11.516;2023-04-24T06:58:30;2.28;;;0.32;;
68377;SDS011;55322;48.146;11.516;2023-04-24T07:00:55;4.00;;;0.30;;
68377;SDS011;55322;48.146;11.516;2023-04-24T07:03:21;2.17;;;0.40;;
68377;SDS011;55322;48.146;11.516;2023-04-24T07:05:46;2.07;;;0.30;;
68377;SDS011;55322;48.146;11.516;2023-04-24T07:08:13;2.58;;;0.35;;
68377;SDS011;55322;48.146;11.516;2023-04-24T07:10:38;2.40;;;0.40;;
68377;SDS011;55322;48.146;11.516;2023-04-24T07:13:03;3.17;;;0.40;;
68377;SDS011;55322;48.146;11.516;2023-04-24T07:15:29;2.97;;;0.30;;
68377;SDS011;55322;48.146;11.516;2023-04-24T07:17:55;2.00;;;0.40;;
68377;SDS011;55322;48.146;11.516;2023-04-24T07:20:20;2.70;;;0.37;;
68377;SDS011;55322;48.146;11.516;2023-04-24T07:22:45;2.10;;;0.30;;
68377;SDS011;55322;48.146;11.516;2023-04-24T07:25:11;1.53;;;0.30;;
68377;SDS011;55322;48.146;11.516;2023-04-24T07:27:36;1.63;;;0.23;;
68377;SDS011;55322;48.146;11.516;2023-04-24T07:30:02;2.90;;;0.50;;
68377;SDS011;55322;48.146;11.516;2023-04-24T07:32:29;2.92;;;0.30;;
68377;SDS011;55322;48.146;11.516;2023-04-24T07:34:54;3.90;;;0.50;;
68377;SDS011;55322;48.146;11.516;2023-04-24T07:37:20;4.40;;;0.50;;
68377;SDS011;55322;48.146;11.516;2023-04-24T07:39:45;2.47;;;0.40;;
68377;SDS011;55322;48.146;11.516;2023-04-24T07:42:11;2.23;;;0.40;;
68377;SDS011;55322;48.146;11.516;2023-04-24T07:44:36;2.23;;;0.30;;
68377;SDS011;55322;48.146;11.516;2023-04-24T07:47:01;4.47;;;0.40;;
68377;SDS011;55322;48.146;11.516;2023-04-24T07:49:27;3.17;;;0.40;;
68377;SDS011;55322;48.146;11.516;2023-04-24T07:51:52;2.60;;;0.30;;
68377;SDS011;55322;48.146;11.516;2023-04-24T07:54:18;4.10;;;0.70;;
68377;SDS011;55322;48.146;11.516;2023-04-24T07:56:43;1.97;;;0.30;;
68377;SDS011;55322;48.146;11.516;2023-04-24T07:59:09;2.78;;;0.47;;
68377;SDS011;55322;48.146;11.516;2023-04-24T08:01:35;2.30;;;0.40;;
68377;SDS011;55322;48.146;11.516;2023-04-24T08:04:01;1.90;;;0.30;;
68377;SDS011;55322;48.146;11.516;2023-04-24T08:06:26;2.83;;;0.30;;
68377;SDS011;55322;48.146;11.516;2023-04-24T08:08:56;2.30;;;0.40;;
68377;SDS011;55322;48.146;11.516;2023-04-24T08:11:23;2.75;;;0.30;;
68377;SDS011;55322;48.146;11.516;2023-04-24T08:13:49;1.70;;;0.30;;
68377;SDS011;55322;48.146;11.516;2023-04-24T08:16:14;3.27;;;0.37;;
68377;SDS011;55322;48.146;11.516;2023-04-24T08:18:39;2.20;;;0.40;;
68377;SDS011;55322;48.146;11.516;2023-04-24T08:21:05;1.47;;;0.23;;
68377;SDS011;55322;48.146;11.516;2023-04-24T08:23:30;2.63;;;0.23;;
68377;SDS011;55322;48.146;11.516;2023-04-24T08:25:55;2.47;;;0.40;;
68377;SDS011;55322;48.146;11.516;2023-04-24T08:28:22;2.53;;;0.30;;
68377;SDS011;55322;48.146;11.516;2023-04-24T08:30:47;3.58;;;0.32;;
68377;SDS011;55322;48.146;11.516;2023-04-24T08:33:13;2.63;;;0.50;;
68377;SDS011;55322;48.146;11.516;2023-04-24T08:35:39;4.57;;;0.83;;
68377;SDS011;55322;48.146;11.516;2023-04-24T08:38:05;4.80;;;0.60;;
68377;SDS011;55322;48.146;11.516;2023-04-24T08:40:30;3.63;;;0.40;;
68377;SDS011;55322;48.146;11.516;2023-04-24T08:42:58;2.33;;;0.32;;
68377;SDS011;55322;48.146;11.516;2023-04-24T08:45:24;2.63;;;0.50;;
68377;SDS011;55322;48.146;11.516;2023-04-24T08:47:50;3.28;;;0.50;;
68377;SDS011;55322;48.146;11.516;2023-04-24T08:50:18;3.83;;;0.63;;
68377;SDS011;55322;48.146;11.516;2023-04-24T08:52:43;2.70;;;0.60;;
68377;SDS011;55322;48.146;11.516;2023-04-24T08:55:09;3.67;;;0.50;;
68377;SDS011;55322;48.146;11.516;2023-04-24T08:57:34;3.00;;;0.60;;
68377;SDS011;55322;48.146;11.516;2023-04-24T09:00:03;4.85;;;0.70;;
68377;SDS011;55322;48.146;11.516;2023-04-24T09:02:29;4.45;;;0.60;;
68377;SDS011;55322;48.146;11.516;2023-04-24T09:04:55;4.47;;;0.70;;
68377;SDS011;55322;48.146;11.516;2023-04-24T09:07:22;3.30;;;0.60;;
68377;SDS011;55322;48.146;11.516;2023-04-24T09:09:48;4.10;;;0.60;;
68377;SDS011;55322;48.146;11.516;2023-04-24T09:12:15;4.70;;;0.70;;
68377;SDS011;55322;48.146;11.516;2023-04-24T09:14:42;4.28;;;0.68;;
68377;SDS011;55322;48.146;11.516;2023-04-24T09:17:10;4.60;;;0.60;;
68377;SDS011;55322;48.146;11.516;2023-04-24T09:19:36;3.50;;;0.50;;
68377;SDS011;55322;48.146;11.516;2023-04-24T09:22:04;3.53;;;0.70;;
68377;SDS011;55322;48.146;11.516;2023-04-24T09:24:31;3.60;;;0.60;;
68377;SDS011;55322;48.146;11.516;2023-04-24T09:26:57;3.30;;;0.70;;
68377;SDS011;55322;48.146;11.516;2023-04-24T09:29:23;5.23;;;0.60;;
68377;SDS011;55322;48.146;11.516;2023-04-24T09:31:49;3.78;;;0.70;;
68377;SDS011;55322;48.146;11.516;2023-04-24T09:34:18;3.95;;;0.80;;
68377;SDS011;55322;48.146;11.516;2023-04-24T09:36:46;4.43;;;0.73;;
68377;SDS011;55322;48.146;11.516;2023-04-24T09:39:12;3.83;;;0.60;;
68377;SDS011;55322;48.146;11.516;2023-04-24T09:41:44;3.50;;;0.67;;
68377;SDS011;55322;48.146;11.516;2023-04-24T09:44:14;4.78;;;0.88;;
68377;SDS011;55322;48.146;11.516;2023-04-24T09:46:42;3.40;;;0.80;;
68377;SDS011;55322;48.146;11.516;2023-04-24T09:49:09;5.47;;;1.40;;
68377;SDS011;55322;48.146;11.516;2023-04-24T09:51:36;4.85;;;1.20;;
68377;SDS011;55322;48.146;11.516;2023-04-24T09:54:13;3.60;;;0.73;;
68377;SDS011;55322;48.146;11.516;2023-04-24T09:56:43;4.15;;;0.80;;
68377;SDS011;55322;48.146;11.516;2023-04-24T09:59:16;4.72;;;1.13;;
68377;SDS011;55322;48.146;11.516;2023-04-24T10:01:45;3.67;;;0.85;;
68377;SDS011;55322;48.146;11.516;2023-04-24T10:04:20;4.38;;;0.82;;
68377;SDS011;55322;48.146;11.516;2023-04-24T10:06:48;4.47;;;0.70;;
68377;SDS011;55322;48.146;11.516;2023-04-24T10:09:15;5.15;;;1.00;;
68377;SDS011;55322;48.146;11.516;2023-04-24T10:11:45;3.83;;;0.80;;
68377;SDS011;55322;48.146;11.516;2023-04-24T10:14:15;3.60;;;0.70;;
68377;SDS011;55322;48.146;11.516;2023-04-24T10:16:42;3.92;;;0.70;;
68377;SDS011;55322;48.146;11.516;2023-04-24T10:19:09;7.13;;;0.85;;
68377;SDS011;55322;48.146;11.516;2023-04-24T10:21:35;4.60;;;0.60;;
68377;SDS011;55322;48.146;11.516;2023-04-24T10:24:07;3.17;;;0.60;;
68377;SDS011;55322;48.146;11.516;2023-04-24T10:26:33;4.75;;;0.65;;
68377;SDS011;55322;48.146;11.516;2023-04-24T10:28:59;6.78;;;0.80;;
68377;SDS011;55322;48.146;11.516;2023-04-24T10:31:25;4.20;;;0.68;;
68377;SDS011;55322;48.146;11.516;2023-04-24T10:33:52;3.70;;;0.60;;
68377;SDS011;55322;48.146;11.516;2023-04-24T10:36:18;4.00;;;0.70;;
68377;SDS011;55322;48.146;11.516;2023-04-24T10:38:47;3.67;;;0.70;;
68377;SDS011;55322;48.146;11.516;2023-04-24T10:41:14;3.45;;;0.60;;
68377;SDS011;55322;48.146;11.516;2023-04-24T10:43:44;4.63;;;0.95;;
68377;SDS011;55322;48.146;11.516;2023-04-24T10:46:10;4.27;;;0.80;;
68377;SDS011;55322;48.146;11.516;2023-04-24T10:48:51;4.05;;;0.60;;
68377;SDS011;55322;48.146;11.516;2023-04-24T10:51:19;5.57;;;0.77;;
68377;SDS011;55322;48.146;11.516;2023-04-24T10:53:47;3.10;;;0.50;;
68377;SDS011;55322;48.146;11.516;2023-04-24T10:56:15;3.95;;;0.60;;
68377;SDS011;55322;48.146;11.516;2023-04-24T10:58:42;3.67;;;0.50;;
68377;SDS011;55322;48.146;11.516;2023-04-24T11:01:22;3.40;;;0.50;;
68377;SDS011;55322;48.146;11.516;2023-04-24T11:04:00;3.17;;;0.65;;
68377;SDS011;55322;48.146;11.516;2023-04-24T11:06:30;2.97;;;0.50;;
68377;SDS011;55322;48.146;11.516;2023-04-24T11:09:07;2.83;;;0.50;;
68377;SDS011;55322;48.146;11.516;2023-04-24T11:11:34;2.70;;;0.40;;
68377;SDS011;55322;48.146;11.516;2023-04-24T11:14:03;4.70;;;0.60;;
68377;SDS011;55322;48.146;11.516;2023-04-24T11:19:24;4.07;;;0.60;;
68377;SDS011;55322;48.146;11.516;2023-04-24T11:21:54;3.70;;;0.70;;
68377;SDS011;55322;48.146;11.516;2023-04-24T11:24:38;2.97;;;0.50;;
68377;SDS011;55322;48.146;11.516;2023-04-24T11:27:05;7.60;;;1.48;;
68377;SDS011;55322;48.146;11.516;2023-04-24T11:32:29;4.40;;;0.60;;
68377;SDS011;55322;48.146;11.516;2023-04-24T11:35:17;4.30;;;0.82;;
68377;SDS011;55322;48.146;11.516;2023-04-24T11:37:45;3.80;;;0.60;;
68377;SDS011;55322;48.146;11.516;2023-04-24T11:40:14;3.33;;;0.63;;
68377;SDS011;55322;48.146;11.516;2023-04-24T11:42:41;4.00;;;0.90;;
68377;SDS011;55322;48.146;11.516;2023-04-24T11:45:11;3.50;;;0.70;;
68377;SDS011;55322;48.146;11.516;2023-04-24T11:47:38;3.88;;;0.70;;
68377;SDS011;55322;48.146;11.516;2023-04-24T11:50:05;4.07;;;0.70;;
68377;SDS011;55322;48.146;11.516;2023-04-24T11:52:38;3.90;;;0.65;;
68377;SDS011;55322;48.146;11.516;2023-04-24T11:55:06;3.17;;;0.60;;
68377;SDS011;55322;48.146;11.516;2023-04-24T11:57:33;4.13;;;0.70;;
68377;SDS011;55322;48.146;11.516;2023-04-24T12:00:01;3.53;;;0.95;;
68377;SDS011;55322;48.146;11.516;2023-04-24T12:02:28;3.87;;;0.70;;
68377;SDS011;55322;48.146;11.516;2023-04-24T12:04:54;2.90;;;0.50;;
68377;SDS011;55322;48.146;11.516;2023-04-24T12:07:20;3.77;;;0.60;;
68377;SDS011;55322;48.146;11.516;2023-04-24T12:09:46;4.22;;;0.80;;
68377;SDS011;55322;48.146;11.516;2023-04-24T12:12:13;4.72;;;0.60;;
68377;SDS011;55322;48.146;11.516;2023-04-24T12:14:51;3.33;;;0.60;;
68377;SDS011;55322;48.146;11.516;2023-04-24T12:17:26;3.08;;;0.52;;
68377;SDS011;55322;48.146;11.516;2023-04-24T12:22:45;3.97;;;0.63;;
68377;SDS011;55322;48.146;11.516;2023-04-24T12:25:24;4.32;;;0.70;;
68377;SDS011;55322;48.146;11.516;2023-04-24T12:27:54;3.90;;;0.93;;
68377;SDS011;55322;48.146;11.516;2023-04-24T12:30:39;4.45;;;0.90;;
68377;SDS011;55322;48.146;11.516;2023-04-24T12:33:07;3.63;;;0.90;;
68377;SDS011;55322;48.146;11.516;2023-04-24T12:35:33;3.10;;;0.67;;
68377;SDS011;55322;48.146;11.516;2023-04-24T12:38:07;3.63;;;0.63;;
68377;SDS011;55322;48.146;11.516;2023-04-24T12:40:37;3.30;;;0.68;;
68377;SDS011;55322;48.146;11.516;2023-04-24T12:43:12;3.47;;;0.67;;
68377;SDS011;55322;48.146;11.516;2023-04-24T12:45:39;4.35;;;0.60;;
68377;SDS011;55322;48.146;11.516;2023-04-24T12:48:04;4.40;;;0.60;;
68377;SDS011;55322;48.146;11.516;2023-04-24T12:50:29;4.93;;;0.87;;
68377;SDS011;55322;48.146;11.516;2023-04-24T12:52:55;4.60;;;0.90;;
68377;SDS011;55322;48.146;11.516;2023-04-24T12:55:20;5.07;;;0.70;;
68377;SDS011;55322;48.146;11.516;2023-04-24T12:57:45;4.57;;;0.70;;
68377;SDS011;55322;48.146;11.516;2023-04-24T13:00:11;3.78;;;0.70;;
68377;SDS011;55322;48.146;11.516;2023-04-24T13:02:37;5.10;;;0.70;;
68377;SDS011;55322;48.146;11.516;2023-04-24T13:05:02;3.47;;;0.60;;
68377;SDS011;55322;48.146;11.516;2023-04-24T13:07:27;3.42;;;0.70;;
68377;SDS011;55322;48.146;11.516;2023-04-24T13:09:54;4.70;;;0.70;;
68377;SDS011;55322;48.146;11.516;2023-04-24T13:12:20;3.58;;;0.70;;
68377;SDS011;55322;48.146;11.516;2023-04-24T13:14:46;4.72;;;1.10;;
68377;SDS011;55322;48.146;11.516;2023-04-24T13:17:12;3.83;;;0.80;;
68377;SDS011;55322;48.146;11.516;2023-04-24T13:19:41;3.90;;;0.80;;
68377;SDS011;55322;48.146;11.516;2023-04-24T13:22:08;4.35;;;0.75;;
68377;SDS011;55322;48.146;11.516;2023-04-24T13:24:35;4.43;;;0.90;;
68377;SDS011;55322;48.146;11.516;2023-04-24T13:27:02;3.90;;;0.90;;
68377;SDS011;55322;48.146;11.516;2023-04-24T13:29:27;4.25;;;0.82;;
68377;SDS011;55322;48.146;11.516;2023-04-24T13:31:53;4.20;;;0.80;;
68377;SDS011;55322;48.146;11.516;2023-04-24T13:34:23;5.50;;;0.90;;
68377;SDS011;55322;48.146;11.516;2023-04-24T13:36:50;5.63;;;0.80;;
68377;SDS011;55322;48.146;11.516;2023-04-24T13:39:16;5.75;;;0.95;;
68377;SDS011;55322;48.146;11.516;2023-04-24T13:41:42;5.22;;;1.00;;
68377;SDS011;55322;48.146;11.516;2023-04-24T13:44:07;5.30;;;0.90;;
68377;SDS011;55322;48.146;11.516;2023-04-24T13:46:33;4.70;;;0.70;;
68377;SDS011;55322;48.146;11.516;2023-04-24T13:48:59;4.43;;;0.90;;
68377;SDS011;55322;48.146;11.516;2023-04-24T13:51:27;4.90;;;0.83;;
68377;SDS011;55322;48.146;11.516;2023-04-24T13:53:53;4.63;;;1.02;;
68377;SDS011;55322;48.146;11.516;2023-04-24T13:56:19;4.07;;;0.80;;
68377;SDS011;55322;48.146;11.516;2023-04-24T13:58:45;4.97;;;0.80;;
68377;SDS011;55322;48.146;11.516;2023-04-24T14:01:10;4.97;;;0.80;;
68377;SDS011;55322;48.146;11.516;2023-04-24T14:03:37;4.30;;;0.80;;
68377;SDS011;55322;48.146;11.516;2023-04-24T14:06:02;4.45;;;0.75;;
68377;SDS011;55322;48.146;11.516;2023-04-24T14:08:27;4.60;;;0.90;;
68377;SDS011;55322;48.146;11.516;2023-04-24T14:10:53;4.50;;;0.77;;
68377;SDS011;55322;48.146;11.516;2023-04-24T14:13:18;7.77;;;0.97;;
68377;SDS011;55322;48.146;11.516;2023-04-24T14:15:44;5.15;;;1.10;;
68377;SDS011;55322;48.146;11.516;2023-04-24T14:18:09;5.27;;;0.87;;
68377;SDS011;55322;48.146;11.516;2023-04-24T14:20:35;5.03;;;1.00;;
68377;SDS011;55322;48.146;11.516;2023-04-24T14:23:00;3.80;;;0.80;;
68377;SDS011;55322;48.146;11.516;2023-04-24T14:25:25;5.67;;;0.90;;
68377;SDS011;55322;48.146;11.516;2023-04-24T14:27:51;4.30;;;0.77;;
68377;SDS011;55322;48.146;11.516;2023-04-24T14:30:17;4.30;;;0.90;;
68377;SDS011;55322;48.146;11.516;2023-04-24T14:32:43;4.65;;;0.95;;
68377;SDS011;55322;48.146;11.516;2023-04-24T14:35:08;4.47;;;1.00;;
68377;SDS011;55322;48.146;11.516;2023-04-24T14:37:33;4.85;;;0.90;;